hwlogo.jpg (8581 bytes)
Home Your Weather Products Services Weather On Your Site Contact
HW Version Logo
Weather Info
Your Weather (Options)
Canadian Weather
International Weather
Enter your " Place, State", US Zip Code or ICAO:  
Forecast Information Radar Information
Saint John, New Brunswick, Canada  Lat: 45.30N, Lon: 65.87W
ICAO Used: CYSJ
Current Conditions
Updated: 3:00 AM AST MON FEB 19 2018
Sun & Moon Information
Clear
Clear
Temp: -10°C
Humidity: 92%
Wind Speed: N 2 MPH
Barometer: 1031 mb
Dewpoint: -11°C
Heat Index: -10°C
Wind Chill: -12°C
Civil Twilight: 6:50 AM AST Moon Phase:
Waxing Crescent Moon
Sunrise: 7:21 AM AST
Sunset: 5:53 PM AST
Civil Twilight: 6:23 PM AST
Forecast for Saint John, NB:
(Forecast based on TAF for )
0242 AM AST MON FEB 19 2018
  
OVERNIGHT MORNING AFTERNOON
Clear Partly
Cloudy
Fair
ZoneCast:
Dated: 0242 AM AST MON FEB 19 2018
Overnight...Clear winds variable in direction at 3 mph.

Morning...Clear winds variable in direction at 3 mph. Turning partly cloudy with winds from the southsoutheast at 9 mph.

Afternoon...Partly cloudy with winds from the southsoutheast at 9 mph. Becoming fair with winds from the southsoutheast at 17 mph and gusts up to 29 mph.

Original Encoded TAF:
Dated: 0242 AM AST MON FEB 19 2018
2018/02/19 06:42
TAF CYSJ 190538Z 1906/1918 VRB03KT P6SM SKC 
     FM191500 20008KT P6SM FEW030 SCT140 
      BECMG 1917/1918 20015G25KT 
      RMK NXT FCST BY 191200Z